createdAt,value
2018-05-12T00:01:02.197Z,99853.51
2018-05-12T00:03:34.594Z,99853.39
2018-05-12T00:06:05.172Z,99855.89
2018-05-12T00:08:35.539Z,99862.05
2018-05-12T00:11:06.067Z,99855.63
2018-05-12T00:13:36.752Z,99855.05
2018-05-12T00:16:09.222Z,99854.92
2018-05-12T00:18:39.880Z,99852.97
2018-05-12T00:21:10.469Z,99855.04
2018-05-12T00:23:41.015Z,99856.23
2018-05-12T00:26:11.629Z,99857.13
2018-05-12T00:28:42.233Z,99849.09
2018-05-12T00:31:12.817Z,99852.36
2018-05-12T00:33:43.449Z,99845.97
2018-05-12T00:36:14.026Z,99848.39
2018-05-12T00:38:44.587Z,99846.16
2018-05-12T00:41:17.030Z,99843.13
2018-05-12T00:43:47.589Z,99845.61
2018-05-12T00:46:18.150Z,99845.52
2018-05-12T00:48:48.692Z,99842.17
2018-05-12T00:51:19.256Z,99844.43
2018-05-12T00:53:49.904Z,99843.34
2018-05-12T00:56:22.091Z,99842.30
2018-05-12T00:58:52.617Z,99837.57
2018-05-12T01:01:23.217Z,99831.55
2018-05-12T01:03:53.721Z,99834.80
2018-05-12T01:06:24.296Z,99840.30
2018-05-12T01:08:54.861Z,99853.30
2018-05-12T01:11:25.513Z,99837.58
2018-05-12T01:13:56.161Z,99834.99
2018-05-12T01:16:26.810Z,99834.23
2018-05-12T01:18:59.180Z,99838.70
2018-05-12T01:21:31.506Z,99835.91
2018-05-12T01:24:02.173Z,99835.98
2018-05-12T01:26:32.484Z,99839.15
2018-05-12T01:29:03.033Z,99834.70
2018-05-12T01:31:33.549Z,99838.95
2018-05-12T01:34:04.180Z,99835.34
2018-05-12T01:36:34.731Z,99830.92
2018-05-12T01:39:05.908Z,99832.08
2018-05-12T01:41:38.225Z,99832.95
2018-05-12T01:44:08.821Z,99835.86
2018-05-12T01:46:39.409Z,99839.97
2018-05-12T01:49:09.967Z,99837.02
2018-05-12T01:51:40.550Z,99841.98
2018-05-12T01:54:11.073Z,99840.39
2018-05-12T01:56:41.635Z,99838.10
2018-05-12T01:59:12.119Z,99834.61
2018-05-12T02:01:44.520Z,99836.69
2018-05-12T02:04:15.612Z,99844.88
2018-05-12T02:06:46.208Z,99843.87
2018-05-12T02:09:16.689Z,99842.56
2018-05-12T02:11:47.321Z,99842.03
2018-05-12T02:14:17.841Z,99834.73
2018-05-12T02:16:48.453Z,99837.66
2018-05-12T02:19:19.167Z,99841.89
2018-05-12T02:21:49.836Z,99838.08
2018-05-12T02:24:20.401Z,99838.89
2018-05-12T02:26:50.989Z,99841.23
2018-05-12T02:29:21.567Z,99841.94
2018-05-12T02:31:52.089Z,99842.19
2018-05-12T02:34:22.809Z,99837.66
2018-05-12T02:36:53.333Z,99832.20
2018-05-12T02:39:25.608Z,99837.12
2018-05-12T02:41:57.949Z,99840.94
2018-05-12T02:44:29.421Z,99837.66
2018-05-12T02:47:00.056Z,99847.09
2018-05-12T02:49:31.653Z,99837.95
2018-05-12T02:52:02.239Z,99839.56
2018-05-12T02:54:32.812Z,99838.72
2018-05-12T02:57:03.609Z,99828.63
2018-05-12T02:59:34.153Z,99830.53
2018-05-12T03:02:04.721Z,99826.56
2018-05-12T03:04:35.393Z,99827.24
2018-05-12T03:07:05.950Z,99827.19
2018-05-12T03:09:36.472Z,99819.94
2018-05-12T03:12:07.189Z,99822.66
2018-05-12T03:14:37.585Z,99824.19
2018-05-12T03:17:09.921Z,99826.03
2018-05-12T03:19:40.457Z,99818.92
2018-05-12T03:22:11.027Z,99826.61
2018-05-12T03:24:42.512Z,99825.39
2018-05-12T03:27:13.029Z,99821.41
2018-05-12T03:29:43.594Z,99830.11
2018-05-12T03:32:14.094Z,99833.05
2018-05-12T03:34:44.653Z,99833.89
2018-05-12T03:37:16.995Z,99829.06
2018-05-12T03:39:49.536Z,99830.66
2018-05-12T03:42:21.868Z,99834.86
2018-05-12T03:44:52.484Z,99832.52
2018-05-12T03:47:23.032Z,99839.15
2018-05-12T03:49:53.557Z,99840.62
2018-05-12T03:52:24.249Z,99833.87
2018-05-12T03:54:54.796Z,99829.97
2018-05-12T03:57:25.472Z,99838.02
2018-05-12T03:59:56.135Z,99833.14
2018-05-12T04:02:26.954Z,99832.00
2018-05-12T04:09:15.468Z,99836.80
2018-05-12T04:12:55.871Z,99833.35
2018-05-12T04:15:26.415Z,99834.53
2018-05-12T04:17:58.885Z,99833.60
2018-05-12T04:20:29.690Z,99832.45
2018-05-12T04:23:00.215Z,99841.47
2018-05-12T04:25:31.215Z,99844.17
2018-05-12T04:28:01.827Z,99846.57
2018-05-12T04:30:34.197Z,99843.94
2018-05-12T04:33:05.636Z,99845.31
2018-05-12T04:35:36.293Z,99847.47
2018-05-12T04:38:08.648Z,99844.97
2018-05-12T04:40:39.337Z,99844.16
2018-05-12T04:43:09.965Z,99855.31
2018-05-12T04:45:40.497Z,99849.20
2018-05-12T04:48:11.094Z,99848.47
2018-05-12T04:50:41.661Z,99846.81
2018-05-12T04:53:12.444Z,99850.56
2018-05-12T04:55:42.954Z,99850.20
2018-05-12T04:58:13.493Z,99849.22
2018-05-12T05:00:44.031Z,99857.92
2018-05-12T05:03:14.569Z,99854.13
2018-05-12T05:05:45.078Z,99855.86
2018-05-12T05:08:15.677Z,99860.58
2018-05-12T05:10:46.396Z,99860.44
2018-05-12T05:13:16.946Z,99860.25
2018-05-12T05:15:47.524Z,99858.06
2018-05-12T05:18:18.103Z,99862.42
2018-05-12T05:20:48.600Z,99856.37
2018-05-12T05:23:19.176Z,99850.88
2018-05-12T05:25:49.767Z,99852.48
2018-05-12T05:28:20.426Z,99860.98
2018-05-12T05:30:50.932Z,99857.96
2018-05-12T05:33:21.302Z,99857.91
2018-05-12T05:35:51.889Z,99850.81
2018-05-12T05:38:22.458Z,99854.53
2018-05-12T05:40:53.005Z,99857.95
2018-05-12T05:43:23.624Z,99855.33
2018-05-12T05:45:54.125Z,99858.33
2018-05-12T05:48:31.191Z,99866.72
2018-05-12T05:51:01.749Z,99872.03
2018-05-12T05:53:32.246Z,99878.83
2018-05-12T05:56:02.796Z,99874.44
2018-05-12T05:58:33.470Z,99873.80
2018-05-12T06:01:04.267Z,99869.89
2018-05-12T06:03:34.922Z,99873.17
2018-05-12T06:06:05.476Z,99869.49
2018-05-12T06:08:36.009Z,99871.81
2018-05-12T06:11:06.578Z,99871.21
2018-05-12T06:13:37.121Z,99869.27
2018-05-12T06:16:07.753Z,99872.88
2018-05-12T06:18:38.292Z,99873.73
2018-05-12T06:21:08.820Z,99873.04
2018-05-12T06:23:39.383Z,99872.50
2018-05-12T06:26:09.942Z,99871.31
2018-05-12T06:28:40.541Z,99871.20
2018-05-12T06:31:11.088Z,99873.39
2018-05-12T06:33:41.648Z,99881.64
2018-05-12T06:36:12.188Z,99874.67
2018-05-12T06:38:42.733Z,99873.19
2018-05-12T06:41:13.393Z,99873.27
2018-05-12T06:43:43.965Z,99871.17
2018-05-12T06:46:14.528Z,99875.30
2018-05-12T06:48:45.295Z,99867.65
2018-05-12T06:51:15.928Z,99873.30
2018-05-12T06:53:46.533Z,99867.48
2018-05-12T06:56:17.149Z,99872.54
2018-05-12T06:58:47.761Z,99865.29
2018-05-12T07:01:18.701Z,99868.16
2018-05-12T07:03:49.413Z,99874.17
2018-05-12T07:06:20.030Z,99877.81
2018-05-12T07:08:50.582Z,99872.77
2018-05-12T07:11:21.247Z,99873.63
2018-05-12T07:13:51.790Z,99878.47
2018-05-12T07:16:22.524Z,99875.27
2018-05-12T07:18:53.116Z,99873.42
2018-05-12T07:21:23.653Z,99878.16
2018-05-12T07:23:54.216Z,99876.34
2018-05-12T07:26:24.996Z,99874.16
2018-05-12T07:28:55.620Z,99867.61
2018-05-12T07:31:26.265Z,99868.45
2018-05-12T07:33:56.862Z,99871.56
2018-05-12T07:36:27.436Z,99865.81
2018-05-12T07:38:58.075Z,99867.16
2018-05-12T07:41:28.779Z,99862.49
2018-05-12T07:43:59.396Z,99860.92
2018-05-12T07:46:30.019Z,99860.17
2018-05-12T07:49:00.547Z,99858.27
2018-05-12T07:51:31.179Z,99855.30
2018-05-12T07:54:01.740Z,99857.03
2018-05-12T07:56:32.467Z,99856.94
2018-05-12T07:59:03.040Z,99850.61
2018-05-12T08:01:33.729Z,99853.78
2018-05-12T08:04:04.328Z,99845.69
2018-05-12T08:06:35.092Z,99849.37
2018-05-12T08:09:05.800Z,99843.69
2018-05-12T08:11:36.477Z,99841.88
2018-05-12T08:14:07.121Z,99848.23
2018-05-12T08:16:37.823Z,99837.80
2018-05-12T08:19:08.407Z,99839.84
2018-05-12T08:21:39.076Z,99837.55
2018-05-12T08:24:09.700Z,99836.68
2018-05-12T08:26:40.305Z,99828.94
2018-05-12T08:29:10.907Z,99826.13
2018-05-12T08:31:41.546Z,99822.67
2018-05-12T08:34:12.198Z,99823.80
2018-05-12T08:36:42.806Z,99813.43
2018-05-12T08:39:13.369Z,99815.88
2018-05-12T08:41:44.009Z,99818.74
2018-05-12T08:44:14.817Z,99821.42
2018-05-12T08:46:45.400Z,99817.41
2018-05-12T08:49:15.956Z,99805.56
2018-05-12T08:51:46.517Z,99806.02
2018-05-12T08:54:17.252Z,99803.67
2018-05-12T08:56:47.821Z,99814.55
2018-05-12T08:59:18.518Z,99798.42
2018-05-12T09:01:49.100Z,99795.45
2018-05-12T09:04:19.810Z,99796.91
2018-05-12T09:06:50.541Z,99797.81
2018-05-12T09:09:21.160Z,99796.78
2018-05-12T09:11:51.769Z,99791.66
2018-05-12T09:14:22.327Z,99786.83
2018-05-12T09:16:53.042Z,99787.37
2018-05-12T09:19:23.841Z,99787.16
2018-05-12T09:21:54.646Z,99785.06
2018-05-12T09:24:25.328Z,99787.95
2018-05-12T09:26:55.928Z,99783.78
2018-05-12T09:29:26.712Z,99786.67
2018-05-12T09:31:57.384Z,99782.50
2018-05-12T09:34:28.020Z,99776.53
2018-05-12T09:36:58.642Z,99779.55
2018-05-12T09:39:29.361Z,99784.48
2018-05-12T09:42:00.144Z,99784.38
2018-05-12T09:44:30.876Z,99778.75
2018-05-12T09:47:01.477Z,99778.55
2018-05-12T09:49:32.181Z,99771.66
2018-05-12T09:52:02.765Z,99768.51
2018-05-12T09:54:33.391Z,99758.21
2018-05-12T09:57:03.911Z,99758.53
2018-05-12T09:59:36.555Z,99761.51
2018-05-12T10:02:07.340Z,99761.45
2018-05-12T10:04:37.971Z,99756.36
2018-05-12T10:07:08.572Z,99753.07
2018-05-12T10:09:39.380Z,99754.84
2018-05-12T10:12:10.040Z,99754.01
2018-05-12T10:14:40.668Z,99752.62
2018-05-12T10:17:11.214Z,99747.16
2018-05-12T10:19:41.923Z,99744.58
2018-05-12T10:22:12.758Z,99738.90
2018-05-12T10:24:43.741Z,99744.23
2018-05-12T10:27:14.341Z,99742.34
2018-05-12T10:29:44.884Z,99743.27
2018-05-12T10:32:15.425Z,99736.89
2018-05-12T10:34:46.017Z,99729.95
2018-05-12T10:37:16.618Z,99730.24
2018-05-12T10:39:47.220Z,99727.23
2018-05-12T10:42:17.902Z,99726.89
2018-05-12T10:44:48.661Z,99723.86
2018-05-12T10:47:19.356Z,99717.63
2018-05-12T10:49:49.933Z,99713.20
2018-05-12T10:52:20.488Z,99712.67
2018-05-12T10:54:52.969Z,99707.41
2018-05-12T10:57:23.505Z,99696.97
2018-05-12T10:59:54.086Z,99694.09
2018-05-12T11:02:24.637Z,99690.22
2018-05-12T11:04:55.249Z,99685.46
2018-05-12T11:07:25.836Z,99677.80
2018-05-12T11:09:56.995Z,99675.31
2018-05-12T11:12:27.568Z,99666.69
2018-05-12T11:14:58.112Z,99667.75
2018-05-12T11:17:28.986Z,99663.98
2018-05-12T11:19:59.509Z,99659.58
2018-05-12T11:22:30.043Z,99657.63
2018-05-12T11:25:00.605Z,99657.73
2018-05-12T11:27:31.194Z,99654.97
2018-05-12T11:30:03.353Z,99650.56
2018-05-12T11:32:37.665Z,99647.06
2018-05-12T11:35:10.010Z,99645.77
2018-05-12T11:37:40.567Z,99643.71
2018-05-12T11:40:11.211Z,99639.19
2018-05-12T11:42:42.831Z,99639.56
2018-05-12T11:45:14.942Z,99644.98
2018-05-12T11:47:47.309Z,99641.03
2018-05-12T11:50:17.871Z,99637.09
2018-05-12T11:52:48.540Z,99628.19
2018-05-12T11:55:19.143Z,99629.11
2018-05-12T11:57:49.733Z,99622.18
2018-05-12T12:00:20.342Z,99613.34
2018-05-12T12:02:50.903Z,99614.83
2018-05-12T12:05:21.481Z,99610.08
2018-05-12T12:07:52.041Z,99610.53
2018-05-12T12:10:22.606Z,99600.99
2018-05-12T12:12:53.234Z,99589.09
2018-05-12T12:15:23.804Z,99592.00
2018-05-12T12:17:54.447Z,99583.63
2018-05-12T12:20:25.133Z,99584.55
2018-05-12T12:22:55.735Z,99583.94
2018-05-12T12:25:26.384Z,99579.00
2018-05-12T12:27:56.964Z,99574.50
2018-05-12T12:30:27.596Z,99572.58
2018-05-12T12:32:58.232Z,99568.86
2018-05-12T12:35:31.705Z,99572.05
2018-05-12T12:38:02.335Z,99569.61
2018-05-12T12:40:32.988Z,99561.58
2018-05-12T12:43:03.745Z,99565.14
2018-05-12T12:45:34.565Z,99561.06
2018-05-12T12:48:05.271Z,99557.45
2018-05-12T12:50:36.351Z,99557.66
2018-05-12T12:53:06.964Z,99546.69
2018-05-12T12:55:38.380Z,99546.13
2018-05-12T12:58:08.946Z,99553.24
2018-05-12T13:00:39.842Z,99545.82
2018-05-12T13:03:10.447Z,99540.06
2018-05-12T13:05:41.353Z,99540.31
2018-05-12T13:08:11.919Z,99541.38
2018-05-12T13:10:42.532Z,99550.59
2018-05-12T13:13:13.177Z,99539.60
2018-05-12T13:15:43.889Z,99536.90
2018-05-12T13:18:14.974Z,99535.53
2018-05-12T13:20:45.836Z,99530.11
2018-05-12T13:23:17.476Z,99530.16
2018-05-12T13:25:48.084Z,99522.20
2018-05-12T13:28:18.660Z,99519.25
2018-05-12T13:30:51.108Z,99511.81
2018-05-12T13:33:23.528Z,99505.87
2018-05-12T13:35:54.036Z,99511.11
2018-05-12T13:38:24.637Z,99509.97
2018-05-12T13:40:55.317Z,99503.67
2018-05-12T13:43:26.012Z,99503.11
2018-05-12T13:45:56.611Z,99502.31
2018-05-12T13:48:27.176Z,99498.60
2018-05-12T13:50:57.830Z,99502.48
2018-05-12T13:53:28.565Z,99497.08
2018-05-12T13:55:59.236Z,99494.45
2018-05-12T13:58:31.901Z,99490.66
2018-05-12T14:01:04.322Z,99482.78
2018-05-12T14:03:35.021Z,99482.20
2018-05-12T14:06:06.403Z,99473.95
2018-05-12T14:08:40.981Z,99475.58
2018-05-12T14:11:13.402Z,99480.63
2018-05-12T14:13:44.362Z,99475.20
2018-05-12T14:16:14.981Z,99477.80
2018-05-12T14:18:47.472Z,99474.89
2018-05-12T14:21:18.128Z,99469.36
2018-05-12T14:23:49.573Z,99465.53
2018-05-12T14:26:20.303Z,99459.44
2018-05-12T14:28:52.760Z,99460.94
2018-05-12T14:31:23.306Z,99463.27
2018-05-12T14:33:53.924Z,99461.11
2018-05-12T14:36:24.538Z,99457.71
2018-05-12T14:38:55.159Z,99457.72
2018-05-12T14:41:25.749Z,99456.32
2018-05-12T14:43:56.352Z,99456.91
2018-05-12T14:46:26.904Z,99449.81
2018-05-12T14:48:57.523Z,99448.19
2018-05-12T14:51:28.181Z,99443.99
2018-05-12T14:53:59.827Z,99451.36
2018-05-12T14:56:30.436Z,99442.09
2018-05-12T14:59:01.916Z,99432.21
2018-05-12T15:01:32.461Z,99438.84
2018-05-12T15:04:03.152Z,99433.86
2018-05-12T15:06:36.040Z,99430.09
2018-05-12T15:09:08.603Z,99433.37
2018-05-12T15:11:40.226Z,99425.73
2018-05-12T15:14:12.722Z,99422.98
2018-05-12T15:16:45.172Z,99421.77
2018-05-12T15:19:15.797Z,99422.76
2018-05-12T15:21:46.525Z,99419.16
2018-05-12T15:24:17.134Z,99412.52
2018-05-12T15:26:47.885Z,99408.66
2018-05-12T15:29:20.344Z,99414.86
2018-05-12T15:31:51.820Z,99403.88
2018-05-12T15:34:24.155Z,99405.08
2018-05-12T15:36:54.812Z,99402.09
2018-05-12T15:39:25.501Z,99391.86
2018-05-12T15:41:56.217Z,99397.06
2018-05-12T15:44:27.077Z,99391.63
2018-05-12T15:46:59.488Z,99391.63
2018-05-12T15:49:30.060Z,99381.58
2018-05-12T15:52:02.461Z,99382.36
2018-05-12T15:54:34.940Z,99384.33
2018-05-12T15:57:07.553Z,99380.70
2018-05-12T15:59:39.663Z,99375.87
2018-05-12T16:02:10.205Z,99372.98
2018-05-12T16:04:41.342Z,99371.96
2018-05-12T16:07:11.900Z,99365.53
2018-05-12T16:09:42.574Z,99361.75
2018-05-12T16:12:14.998Z,99353.56
2018-05-12T16:14:47.776Z,99354.97
2018-05-12T16:17:20.265Z,99350.36
2018-05-12T16:19:50.943Z,99351.91
2018-05-12T16:22:23.383Z,99348.99
2018-05-12T16:24:53.998Z,99344.18
2018-05-12T16:27:24.628Z,99335.30
2018-05-12T16:29:55.332Z,99334.95
2018-05-12T16:32:27.763Z,99334.32
2018-05-12T16:34:58.397Z,99333.47
2018-05-12T16:37:29.022Z,99332.52
2018-05-12T16:40:03.672Z,99330.33
2018-05-12T16:42:36.452Z,99327.62
2018-05-12T16:45:07.068Z,99328.77
2018-05-12T16:47:38.317Z,99328.21
2018-05-12T16:50:09.018Z,99329.71
2018-05-12T16:52:41.598Z,99332.28
2018-05-12T16:55:12.271Z,99331.23
2018-05-12T16:57:42.980Z,99327.08
2018-05-12T17:00:15.688Z,99331.11
2018-05-12T17:02:46.326Z,99331.22
2018-05-12T17:05:17.050Z,99328.34
2018-05-12T17:07:48.064Z,99322.33
2018-05-12T17:10:19.588Z,99319.47
2018-05-12T17:12:50.186Z,99323.67
2018-05-12T17:15:21.050Z,99320.81
2018-05-12T17:17:51.644Z,99327.27
2018-05-12T17:20:22.318Z,99326.62
2018-05-12T17:22:52.871Z,99318.91
2018-05-12T17:25:23.486Z,99315.45
2018-05-12T17:27:54.136Z,99312.64
2018-05-12T17:30:24.824Z,99311.95
2018-05-12T17:32:55.480Z,99314.91
2018-05-12T17:35:27.917Z,99314.09
2018-05-12T17:37:58.535Z,99311.16
2018-05-12T17:40:29.280Z,99308.20
2018-05-12T17:42:59.843Z,99308.04
2018-05-12T17:45:32.273Z,99311.16
2018-05-12T17:48:02.924Z,99316.49
2018-05-12T17:50:33.556Z,99316.63
2018-05-12T17:53:05.972Z,99312.84
2018-05-12T17:55:38.688Z,99312.17
2018-05-12T17:58:09.437Z,99315.65
2018-05-12T18:00:40.082Z,99310.64
2018-05-12T18:03:12.540Z,99310.42
2018-05-12T18:05:42.873Z,99302.11
2018-05-12T18:08:15.060Z,99306.77
2018-05-12T18:10:45.492Z,99304.48
2018-05-12T18:13:16.134Z,99300.95
2018-05-12T18:15:46.884Z,99300.42
2018-05-12T18:18:17.180Z,99303.55
2018-05-12T18:20:48.338Z,99301.44
2018-05-12T18:23:18.704Z,99304.87
2018-05-12T18:25:58.720Z,99299.77
2018-05-12T18:28:30.224Z,99299.55
2018-05-12T18:31:01.636Z,99304.59
2018-05-12T18:33:31.921Z,99304.87
2018-05-12T18:36:02.516Z,99301.05
2018-05-12T18:38:32.821Z,99302.23
2018-05-12T18:41:03.322Z,99295.26
2018-05-12T18:43:39.699Z,99293.02
2018-05-12T18:46:09.993Z,99288.66
2018-05-12T18:48:40.500Z,99280.64
2018-05-12T18:51:10.756Z,99279.33
2018-05-12T18:53:41.212Z,99282.80
2018-05-12T18:56:11.478Z,99283.14
2018-05-12T18:58:41.788Z,99286.88
2018-05-12T19:01:12.012Z,99291.77
2018-05-12T19:03:42.482Z,99292.77
2018-05-12T19:06:13.088Z,99289.03
2018-05-12T19:08:43.801Z,99295.31
2018-05-12T19:11:14.529Z,99289.45
2018-05-12T19:13:44.832Z,99293.36
2018-05-12T19:16:15.149Z,99292.78
2018-05-12T19:18:45.578Z,99294.83
2018-05-12T19:21:15.825Z,99298.73
2018-05-12T19:23:46.584Z,99293.13
2018-05-12T19:26:17.229Z,99297.22
2018-05-12T19:28:48.147Z,99293.08
2018-05-12T19:31:18.448Z,99290.94
2018-05-12T19:33:49.929Z,99293.51
2018-05-12T19:36:20.208Z,99284.91
2018-05-12T19:38:52.024Z,99287.67
2018-05-12T19:41:22.366Z,99286.51
2018-05-12T19:43:53.290Z,99301.43
2018-05-12T19:46:23.547Z,99302.39
2018-05-12T19:48:54.181Z,99301.31
2018-05-12T19:51:24.460Z,99299.66
2018-05-12T19:53:55.008Z,99300.76
2018-05-12T19:56:25.622Z,99294.59
2018-05-12T19:58:55.931Z,99294.38
2018-05-12T20:01:27.957Z,99296.20
2018-05-12T20:03:58.856Z,99300.63
2018-05-12T20:06:29.158Z,99304.95
2018-05-12T20:09:01.288Z,99309.34
2018-05-12T20:11:31.857Z,99302.06
2018-05-12T20:14:02.220Z,99305.00
2018-05-12T20:16:32.999Z,99300.39
2018-05-12T20:19:03.313Z,99299.97
2018-05-12T20:21:33.648Z,99294.14
2018-05-12T20:24:03.953Z,99290.60
2018-05-12T20:26:34.268Z,99289.75
2018-05-12T20:29:04.612Z,99288.67
2018-05-12T20:31:34.926Z,99289.42
2018-05-12T20:34:05.220Z,99283.42
2018-05-12T20:36:35.462Z,99294.55
2018-05-12T20:39:07.640Z,99290.67
2018-05-12T20:41:39.029Z,99278.43
2018-05-12T20:44:09.300Z,99283.86
2018-05-12T20:46:40.035Z,99282.99
2018-05-12T20:49:10.308Z,99280.31
2018-05-12T20:51:41.140Z,99278.05
2018-05-12T20:54:11.502Z,99281.48
2018-05-12T20:56:41.786Z,99277.50
2018-05-12T20:59:13.880Z,99274.38
2018-05-12T21:01:44.144Z,99276.20
2018-05-12T21:04:14.615Z,99274.27
2018-05-12T21:06:46.727Z,99265.27
2018-05-12T21:09:16.992Z,99265.45
2018-05-12T21:11:47.637Z,99273.34
2018-05-12T21:14:18.876Z,99280.67
2018-05-12T21:16:49.387Z,99279.33
2018-05-12T21:19:19.802Z,99268.08
2018-05-12T21:21:50.827Z,99279.17
2018-05-12T21:24:21.724Z,99280.55
2018-05-12T21:26:55.461Z,99284.91
2018-05-12T21:29:26.124Z,99278.92
2018-05-12T21:31:57.897Z,99276.42
2018-05-12T21:34:28.157Z,99264.99
2018-05-12T21:37:01.010Z,99270.84
2018-05-12T21:39:31.309Z,99269.94
2018-05-12T21:42:01.993Z,99265.37
2018-05-12T21:44:32.219Z,99272.93
2018-05-12T21:47:04.664Z,99265.15
2018-05-12T21:49:35.188Z,99269.66
2018-05-12T21:52:05.420Z,99268.50
2018-05-12T21:54:35.873Z,99267.08
2018-05-12T21:57:06.191Z,99259.55
2018-05-12T21:59:36.489Z,99262.70
2018-05-12T22:02:06.694Z,99253.84
2018-05-12T22:04:36.933Z,99256.80
2018-05-12T22:07:07.508Z,99254.94
2018-05-12T22:09:39.597Z,99250.00
2018-05-12T22:12:09.864Z,99246.77
2018-05-12T22:14:40.197Z,99249.62
2018-05-12T22:17:13.292Z,99247.69
2018-05-12T22:19:43.556Z,99244.25
2018-05-12T22:22:15.684Z,99241.94
2018-05-12T22:24:45.980Z,99247.70
2018-05-12T22:27:16.304Z,99247.81
2018-05-12T22:29:46.680Z,99237.06
2018-05-12T22:32:18.819Z,99236.77
2018-05-12T22:34:49.428Z,99233.49
2018-05-12T22:37:21.515Z,99240.98
2018-05-12T22:39:53.048Z,99243.33
2018-05-12T22:42:25.121Z,99241.88
2018-05-12T22:44:58.380Z,99239.75
2018-05-12T22:47:28.707Z,99241.10
2018-05-12T22:49:59.861Z,99231.28
2018-05-12T22:52:32.015Z,99232.02
2018-05-12T22:55:02.351Z,99227.41
2018-05-12T22:57:32.633Z,99224.33
2018-05-12T23:00:04.306Z,99224.51
2018-05-12T23:02:34.253Z,99223.37
2018-05-12T23:05:04.713Z,99219.45
2018-05-12T23:07:35.453Z,99217.05
2018-05-12T23:10:06.128Z,99212.02
2018-05-12T23:12:36.721Z,99214.16
2018-05-12T23:15:09.146Z,99215.65
2018-05-12T23:17:39.711Z,99222.25
2018-05-12T23:20:10.920Z,99224.95
2018-05-12T23:22:48.439Z,99223.11
2018-05-12T23:25:20.938Z,99221.99
2018-05-12T23:27:52.014Z,99224.04
2018-05-12T23:30:24.365Z,99223.78
2018-05-12T23:32:55.845Z,99221.84
2018-05-12T23:35:26.875Z,99221.58
2018-05-12T23:37:57.531Z,99215.94
2018-05-12T23:40:28.985Z,99218.16
2018-05-12T23:43:00.526Z,99221.41
2018-05-12T23:45:31.287Z,99217.11
2018-05-12T23:48:03.517Z,99221.32
2018-05-12T23:50:34.177Z,99219.04
2018-05-12T23:53:05.874Z,99217.73
2018-05-12T23:55:36.500Z,99225.47
2018-05-12T23:58:07.471Z,99224.08
